createdAt,value
2018-11-07T13:50:30.235Z,44.93
2018-11-07T13:53:01.466Z,47.08
2018-11-07T13:55:31.597Z,42.23
2018-11-07T13:58:02.421Z,49.70
2018-11-07T14:00:31.972Z,50.15
2018-11-07T14:03:02.997Z,48.30
2018-11-07T14:05:33.954Z,45.92
2018-11-07T14:08:07.590Z,42.43
2018-11-07T14:10:40.593Z,43.70
2018-11-07T14:13:10.545Z,51.53
2018-11-07T14:15:41.259Z,49.55
2018-11-07T14:18:12.789Z,48.78
2018-11-07T14:20:43.389Z,58.13
2018-11-07T14:23:13.644Z,48.60
2018-11-07T14:25:44.876Z,56.68
2018-11-07T14:28:16.320Z,57.23
2018-11-07T14:30:48.341Z,49.98
2018-11-07T14:33:18.677Z,50.80
2018-11-07T14:41:51.563Z,61.35
2018-11-07T14:44:21.317Z,56.42
2018-11-07T14:46:50.442Z,52.30
2018-11-07T14:49:19.521Z,52.43
2018-11-07T14:51:52.833Z,53.28
2018-11-07T15:18:07.262Z,49.77
2018-11-07T15:45:04.609Z,62.03
2018-11-07T15:51:35.614Z,53.65
2018-11-07T16:07:40.779Z,54.98
2018-11-07T16:27:22.232Z,56.73
2018-11-07T16:32:41.352Z,60.00
2018-11-07T16:35:14.560Z,67.50
2018-11-07T16:37:59.787Z,60.40
2018-11-07T16:40:30.879Z,54.90
2018-11-07T16:43:02.964Z,56.55
2018-11-07T16:45:34.574Z,55.03
2018-11-07T16:48:07.092Z,60.38
2018-11-07T16:50:45.648Z,55.03
2018-11-07T16:53:24.852Z,64.42
2018-11-07T16:55:58.659Z,63.08
2018-11-07T20:04:33.660Z,80.42
2018-11-07T20:07:03.624Z,76.67
2018-11-07T20:09:32.292Z,77.62
2018-11-07T20:12:01.437Z,77.90
2018-11-07T20:14:31.132Z,71.80
2018-11-07T20:17:00.019Z,74.47
2018-11-07T20:19:29.441Z,79.92
2018-11-07T20:21:58.898Z,75.15
2018-11-07T20:24:27.629Z,71.62
2018-11-07T20:26:56.281Z,85.28
2018-11-07T20:29:25.250Z,75.20
2018-11-07T20:31:54.474Z,78.28
2018-11-07T20:34:23.329Z,80.55
2018-11-07T20:37:06.566Z,82.85
2018-11-07T20:39:35.353Z,74.40
2018-11-07T20:42:04.282Z,77.40
2018-11-07T20:44:33.049Z,82.50
2018-11-07T20:47:01.840Z,70.70
2018-11-07T20:49:30.308Z,78.60
2018-11-07T20:51:58.896Z,80.77
2018-11-07T20:54:27.340Z,78.80
2018-11-07T20:57:25.000Z,76.37
2018-11-07T20:59:53.479Z,77.67
2018-11-07T21:02:22.020Z,76.60
2018-11-07T21:04:56.256Z,78.70
2018-11-07T21:07:25.929Z,69.45
2018-11-07T21:09:55.292Z,77.65
2018-11-07T21:12:27.604Z,79.75
2018-11-07T21:15:07.020Z,74.72
2018-11-07T21:17:36.718Z,83.33
2018-11-07T21:20:05.701Z,77.53
2018-11-07T21:22:34.382Z,72.42
2018-11-07T21:25:02.913Z,72.05
2018-11-07T21:27:32.294Z,78.25
2018-11-07T21:30:00.850Z,75.08
2018-11-07T21:32:29.432Z,77.05
2018-11-07T21:34:58.264Z,73.62
2018-11-07T21:37:26.883Z,79.65
2018-11-07T21:39:55.338Z,80.15
2018-11-07T21:42:23.990Z,72.27
2018-11-07T21:44:52.527Z,82.00
2018-11-07T21:47:20.979Z,76.05
2018-11-07T21:49:49.610Z,68.42
2018-11-07T21:52:18.111Z,73.70
2018-11-07T21:54:46.617Z,78.00
2018-11-07T21:57:15.402Z,70.75
2018-11-07T21:59:44.246Z,78.92
2018-11-07T22:02:18.187Z,75.75
2018-11-07T22:04:47.313Z,76.40
2018-11-07T22:07:15.927Z,76.30
2018-11-07T22:09:44.542Z,71.02
2018-11-07T22:12:13.470Z,73.25
2018-11-07T22:14:41.934Z,68.50
2018-11-07T22:17:10.638Z,66.33
2018-11-07T22:19:47.424Z,70.03
2018-11-07T22:22:15.926Z,79.33
2018-11-07T22:24:44.482Z,76.97
2018-11-07T22:27:12.969Z,72.15
2018-11-07T22:29:41.497Z,70.87
2018-11-07T22:32:10.169Z,79.50
2018-11-07T22:34:38.624Z,74.47
2018-11-07T22:37:07.368Z,71.17
2018-11-07T22:39:35.864Z,67.05
2018-11-07T22:42:04.984Z,77.72
2018-11-07T22:44:33.932Z,71.25
2018-11-07T22:47:02.400Z,75.32
2018-11-07T22:49:30.844Z,72.25
2018-11-07T22:52:00.989Z,67.50
2018-11-07T22:54:29.416Z,65.90
2018-11-07T22:56:58.093Z,70.20
2018-11-07T22:59:26.633Z,70.72
2018-11-07T23:01:55.249Z,69.22
2018-11-07T23:04:23.825Z,70.35
2018-11-07T23:06:52.579Z,69.82
2018-11-07T23:09:21.041Z,77.17
2018-11-07T23:11:49.517Z,67.08
2018-11-07T23:14:18.985Z,69.58
2018-11-07T23:16:54.197Z,77.00
2018-11-07T23:19:22.890Z,70.93
2018-11-07T23:21:51.368Z,65.30
2018-11-07T23:24:19.821Z,69.55
2018-11-07T23:26:48.388Z,68.57
2018-11-07T23:29:17.661Z,67.08
2018-11-07T23:31:46.480Z,72.45
2018-11-07T23:34:15.408Z,67.60
2018-11-07T23:36:44.300Z,68.15
2018-11-07T23:39:12.808Z,63.38
2018-11-07T23:41:41.372Z,66.37
2018-11-07T23:44:09.852Z,67.35
2018-11-07T23:46:38.508Z,59.40
2018-11-07T23:49:07.424Z,70.90
2018-11-07T23:51:40.648Z,57.70
2018-11-07T23:54:09.232Z,59.05
2018-11-07T23:56:37.692Z,63.40
2018-11-07T23:59:06.424Z,65.15
